Idaville, Indiana
Current Conditions -  °F | °C
As of 4:35 PM on Saturday 25 Oct 2014 (Local Time) from KMCX Reporting Station
Clear Clear  
Wind Chill: 73°   Ceiling: Unl
Heat Index: 73°   Visibility: 10mi
Dew Point: 47°   Wind: 14mph
Humidity: 40%   Direction: 300°WNW
Pressure: 29.91"   Gusts: 21mph
Location:  40.76°N, 86.65°W
Report Text: KMCX 252035Z AUTO 30012G18KT 10SM CLR 23/09 A2991 RMK AO2 T02270085
Loading
Personal Weather Stations






























Interactive Weather Map New forecast layout! Learn more

10-Day Weather Forecast

Advertisements
Track Severe Weather on mobile